WetterOnline ( https://www.wetteronline.de )

Wetter aktuell Ludwigsburg

Aktuelles Wetter: Schnarrenberg/Stuttgart (315m)

6-stündlich | Neueste Meldungen
Ortszeit Temperatur Wetter
Fr, 26.02. 19:00 6.4° C bedeckt
Fr, 26.02. 13:00 13.5° C bedeckt
Fr, 26.02. 7:00 5.9° C fast wolkenlos
Fr, 26.02. 1:00 9.0° C leicht bewölkt
Do, 25.02. 19:00 15.6° C wolkenlos
Do, 25.02. 13:00 17.8° C wolkenlos
Do, 25.02. 7:00 6.0° C wolkenlos
Do, 25.02. 1:00 10.8° C wolkenlos
Ortszeit Temperatur Wetter
Fr, 26.02. 20:30 5.5° C leichter Regen
Fr, 26.02. 20:20 5.5° C leichter Regen
Fr, 26.02. 20:10 5.6° C leichter Regen
Fr, 26.02. 20:00 6.0° C leichter Regen
Fr, 26.02. 19:50 6.0° C leichter Regen
Fr, 26.02. 19:40 6.2° C Sprühregen
Fr, 26.02. 19:30 6.2° C Sprühregen
Fr, 26.02. 19:00 6.4° C bedeckt
Ortszeit Relative Feuchte Sichtweite
Fr, 26.02. 19:00 85% 30 km
Fr, 26.02. 13:00 51% 22 km
Fr, 26.02. 7:00 68% 24 km
Fr, 26.02. 1:00 71% 18 km
Do, 25.02. 19:00 48% 18 km
Do, 25.02. 13:00 43% 18 km
Do, 25.02. 7:00 79% 19 km
Do, 25.02. 1:00 67% 20 km
Ortszeit Relative Feuchte Sichtweite
Fr, 26.02. 20:30 91% 15 km
Fr, 26.02. 20:20 91% -
Fr, 26.02. 20:10 91% -
Fr, 26.02. 20:00 87% 20 km
Fr, 26.02. 19:50 87% -
Fr, 26.02. 19:40 86% -
Fr, 26.02. 19:30 86% 26 km
Fr, 26.02. 19:00 85% 30 km
Ortszeit Niederschlagsmenge Niederschlagsart
Fr, 26.02. 19:00 0.0 l/m2 in 12 Std. -
Fr, 26.02. 13:00 0.0 l/m2 in 6 Std. -
Fr, 26.02. 7:00 0.0 l/m2 in 12 Std. -
Fr, 26.02. 1:00 0.0 l/m2 in 6 Std. -
Do, 25.02. 19:00 0.0 l/m2 in 12 Std. -
Do, 25.02. 13:00 0.0 l/m2 in 6 Std. -
Do, 25.02. 7:00 0.0 l/m2 in 12 Std. -
Do, 25.02. 1:00 0.0 l/m2 in 6 Std. -
Ortszeit Niederschlagsmenge Niederschlagsart
Fr, 26.02. 20:30 0.4 l/m2 in 1 Std. -
Fr, 26.02. 20:20 keine Meldung -
Fr, 26.02. 20:10 keine Meldung -
Fr, 26.02. 20:00 0.1 l/m2 in 1 Std. Regen
Fr, 26.02. 19:50 keine Meldung -
Fr, 26.02. 19:40 keine Meldung -
Fr, 26.02. 19:30 0.1 l/m2 in 1 Std. -
Fr, 26.02. 19:00 0.0 l/m2 in 1 Std. -
Ortszeit Stärke Spitze Richtung
km/h Bft. km/h Grad Sektor
Fr, 26.02. 19:00 22 4 32 310° NW
Fr, 26.02. 13:00 13 3 22 320° NW
Fr, 26.02. 7:00 13 3 19 160° S
Fr, 26.02. 1:00 2 1 17 130° SO
Do, 25.02. 19:00 7 2 29 330° NW
Do, 25.02. 13:00 13 3 28 140° SO
Do, 25.02. 7:00 18 3 25 140° SO
Do, 25.02. 1:00 11 2 22 160° S
Ortszeit Stärke Spitze Richtung
km/h Bft. km/h Grad Sektor
Fr, 26.02. 20:30 14 3 22 320° NW
Fr, 26.02. 20:20 14 3 - 320° NW
Fr, 26.02. 20:10 15 3 - 330° NW
Fr, 26.02. 20:00 17 3 31 330° NW
Fr, 26.02. 19:50 17 3 - 330° NW
Fr, 26.02. 19:40 18 3 - 320° NW
Fr, 26.02. 19:30 18 3 32 310° NW
Fr, 26.02. 19:00 22 4 32 310° NW
Ortszeit Untergrenze Bedeckung Gattung
total tief tief mittel hoch
Fr, 26.02. 19:00 390 m 8/8 8/8 - - -
Fr, 26.02. 13:00 2700 m 8/8 8/8 - - -
Fr, 26.02. 7:00 7200 m 2/8 0/8 - - -
Fr, 26.02. 1:00 8400 m 3/8 0/8 - - -
Do, 25.02. 19:00 - 0/8 0/8 - - -
Do, 25.02. 13:00 - 0/8 0/8 - - -
Do, 25.02. 7:00 - 0/8 0/8 - - -
Do, 25.02. 1:00 - 0/8 0/8 - - -
Ortszeit Bedeckungsgrad in Achtel und Wolkenuntergrenze
Fr, 26.02. 20:30 7(240m) 8(390m)
Fr, 26.02. 20:20 7(240m) 8(390m)
Fr, 26.02. 20:10 7(240m)
Fr, 26.02. 20:00 8(300m)
Fr, 26.02. 19:50 8(300m)
Fr, 26.02. 19:40 8(300m)
Fr, 26.02. 19:30 8(300m)
Fr, 26.02. 19:00 8(390m)
Ortszeit Luftdruck NN (hPa) Tendenz (hPa in 3 Std.)
Fr, 26.02. 19:00 1033 + 1,9
Fr, 26.02. 13:00 1030 0,0
Fr, 26.02. 7:00 1030 0,0
Fr, 26.02. 1:00 1030 + 0,7
Do, 25.02. 19:00 1028 + 1,1
Do, 25.02. 13:00 1029 - 1,0
Do, 25.02. 7:00 1031 - 0,2
Do, 25.02. 1:00 1031 - 0,5
Ortszeit Luftdruck NN (hPa) Tendenz (hPa in 3 Std.)
Fr, 26.02. 20:30 1034 + 2,0
Fr, 26.02. 20:20 1034 keine Meldung
Fr, 26.02. 20:10 1034 keine Meldung
Fr, 26.02. 20:00 1034 + 2,2
Fr, 26.02. 19:50 1034 keine Meldung
Fr, 26.02. 19:40 1034 keine Meldung
Fr, 26.02. 19:30 1033 + 1,9
Fr, 26.02. 19:00 1033 + 1,9
Ortszeit Schneehöhe (cm)
Fr, 26.02. 19:00 0
Fr, 26.02. 13:00 0
Fr, 26.02. 7:00 0
Fr, 26.02. 1:00 0
Do, 25.02. 19:00 0
Do, 25.02. 13:00 0
Do, 25.02. 7:00 0
Do, 25.02. 1:00 0
Ortszeit Schneehöhe (cm)
Fr, 26.02. 20:30 0
Fr, 26.02. 20:20 0
Fr, 26.02. 20:10 0
Fr, 26.02. 20:00 0
Fr, 26.02. 19:50 0
Fr, 26.02. 19:40 0
Fr, 26.02. 19:30 0
Fr, 26.02. 19:00 0
Link zu dieser Seite / Seite empfehlen

Das Wetter in ...